sensor_id;sensor_type;location;lat;lon;timestamp;pressure;altitude;pressure_sealevel;temperature;humidity
61039;BME280;46919;45.816;3.104;2022-11-18T00:01:16;96536.47;;;8.45;88.56
61039;BME280;46919;45.816;3.104;2022-11-18T00:03:42;96548.75;;;8.41;88.82
61039;BME280;46919;45.816;3.104;2022-11-18T00:06:12;96542.75;;;8.51;86.49
61039;BME280;46919;45.816;3.104;2022-11-18T00:08:38;96547.56;;;8.49;86.02
61039;BME280;46919;45.816;3.104;2022-11-18T00:11:07;96548.06;;;8.46;86.32
61039;BME280;46919;45.816;3.104;2022-11-18T00:13:33;96549.94;;;8.45;86.54
61039;BME280;46919;45.816;3.104;2022-11-18T00:16:17;96553.09;;;8.42;86.52
61039;BME280;46919;45.816;3.104;2022-11-18T00:18:43;96567.59;;;8.41;86.41
61039;BME280;46919;45.816;3.104;2022-11-18T00:21:10;96562.22;;;8.41;86.92
61039;BME280;46919;45.816;3.104;2022-11-18T00:23:36;96570.78;;;8.38;87.31
61039;BME280;46919;45.816;3.104;2022-11-18T00:26:07;96577.63;;;8.29;88.19
61039;BME280;46919;45.816;3.104;2022-11-18T00:28:33;96581.63;;;8.26;88.28
61039;BME280;46919;45.816;3.104;2022-11-18T00:31:10;96555.84;;;8.30;88.02
61039;BME280;46919;45.816;3.104;2022-11-18T00:33:36;96569.84;;;8.32;87.62
61039;BME280;46919;45.816;3.104;2022-11-18T00:36:08;96575.41;;;8.26;88.36
61039;BME280;46919;45.816;3.104;2022-11-18T00:38:33;96573.69;;;8.20;89.15
61039;BME280;46919;45.816;3.104;2022-11-18T00:43:29;96590.22;;;8.11;89.24
61039;BME280;46919;45.816;3.104;2022-11-18T00:45:55;96586.97;;;8.09;89.38
61039;BME280;46919;45.816;3.104;2022-11-18T00:48:21;96598.44;;;8.05;89.63
61039;BME280;46919;45.816;3.104;2022-11-18T00:50:48;96608.16;;;8.06;89.36
61039;BME280;46919;45.816;3.104;2022-11-18T00:53:14;96600.19;;;8.11;88.56
61039;BME280;46919;45.816;3.104;2022-11-18T00:55:40;96606.28;;;8.06;88.90
61039;BME280;46919;45.816;3.104;2022-11-18T00:58:05;96618.41;;;8.09;88.50
61039;BME280;46919;45.816;3.104;2022-11-18T01:00:31;96598.53;;;8.10;88.42
61039;BME280;46919;45.816;3.104;2022-11-18T01:02:56;96615.00;;;8.13;88.24
61039;BME280;46919;45.816;3.104;2022-11-18T01:05:21;96613.00;;;8.21;87.93
61039;BME280;46919;45.816;3.104;2022-11-18T01:07:47;96602.31;;;8.26;87.43
61039;BME280;46919;45.816;3.104;2022-11-18T01:10:12;96610.25;;;8.32;86.17
61039;BME280;46919;45.816;3.104;2022-11-18T01:12:37;96625.66;;;8.37;86.33
61039;BME280;46919;45.816;3.104;2022-11-18T01:15:21;96636.44;;;8.37;85.47
61039;BME280;46919;45.816;3.104;2022-11-18T01:17:47;96647.69;;;8.34;85.53
61039;BME280;46919;45.816;3.104;2022-11-18T01:20:14;96635.31;;;8.33;85.57
61039;BME280;46919;45.816;3.104;2022-11-18T01:22:39;96641.88;;;8.25;86.00
61039;BME280;46919;45.816;3.104;2022-11-18T01:25:05;96641.78;;;8.20;86.57
61039;BME280;46919;45.816;3.104;2022-11-18T01:27:30;96649.63;;;8.22;86.06
61039;BME280;46919;45.816;3.104;2022-11-18T01:29:55;96648.56;;;8.23;86.41
61039;BME280;46919;45.816;3.104;2022-11-18T01:32:21;96648.47;;;8.18;86.72
61039;BME280;46919;45.816;3.104;2022-11-18T01:34:46;96646.50;;;8.13;86.52
61039;BME280;46919;45.816;3.104;2022-11-18T01:37:12;96653.66;;;8.07;87.40
61039;BME280;46919;45.816;3.104;2022-11-18T01:39:37;96663.25;;;8.03;87.97
61039;BME280;46919;45.816;3.104;2022-11-18T01:42:02;96660.00;;;8.01;88.02
61039;BME280;46919;45.816;3.104;2022-11-18T01:47:43;96670.88;;;7.94;87.82
61039;BME280;46919;45.816;3.104;2022-11-18T01:50:09;96666.91;;;7.97;87.82
61039;BME280;46919;45.816;3.104;2022-11-18T01:52:37;96678.72;;;7.96;88.01
61039;BME280;46919;45.816;3.104;2022-11-18T01:55:12;96676.47;;;8.05;87.70
61039;BME280;46919;45.816;3.104;2022-11-18T01:57:41;96684.72;;;8.27;85.01
61039;BME280;46919;45.816;3.104;2022-11-18T02:00:08;96688.78;;;8.29;84.63
61039;BME280;46919;45.816;3.104;2022-11-18T02:02:35;96689.75;;;8.23;84.96
61039;BME280;46919;45.816;3.104;2022-11-18T02:05:04;96694.06;;;8.24;85.56
61039;BME280;46919;45.816;3.104;2022-11-18T02:07:33;96691.16;;;8.26;85.74
61039;BME280;46919;45.816;3.104;2022-11-18T02:10:03;96693.03;;;8.25;84.73
61039;BME280;46919;45.816;3.104;2022-11-18T02:12:29;96697.94;;;8.16;85.49
61039;BME280;46919;45.816;3.104;2022-11-18T02:14:55;96698.47;;;8.02;86.66
61039;BME280;46919;45.816;3.104;2022-11-18T02:25:20;96711.13;;;8.01;84.92
61039;BME280;46919;45.816;3.104;2022-11-18T02:33:57;96717.81;;;7.87;84.84
61039;BME280;46919;45.816;3.104;2022-11-18T02:36:40;96722.38;;;7.74;85.70
61039;BME280;46919;45.816;3.104;2022-11-18T02:39:14;96727.16;;;7.72;85.95
61039;BME280;46919;45.816;3.104;2022-11-18T02:41:43;96724.22;;;7.74;85.21
61039;BME280;46919;45.816;3.104;2022-11-18T02:44:12;96727.28;;;7.77;84.62
61039;BME280;46919;45.816;3.104;2022-11-18T02:46:39;96723.28;;;7.80;84.62
61039;BME280;46919;45.816;3.104;2022-11-18T02:49:11;96731.25;;;7.75;85.00
61039;BME280;46919;45.816;3.104;2022-11-18T02:51:38;96737.81;;;7.67;85.15
61039;BME280;46919;45.816;3.104;2022-11-18T02:54:07;96735.94;;;7.56;85.65
61039;BME280;46919;45.816;3.104;2022-11-18T02:56:35;96736.28;;;7.48;86.70
61039;BME280;46919;45.816;3.104;2022-11-18T02:59:01;96739.56;;;7.50;87.38
61039;BME280;46919;45.816;3.104;2022-11-18T03:01:29;96740.88;;;7.47;87.19
61039;BME280;46919;45.816;3.104;2022-11-18T03:03:55;96753.13;;;7.55;87.11
61039;BME280;46919;45.816;3.104;2022-11-18T03:06:36;96750.94;;;7.52;86.85
61039;BME280;46919;45.816;3.104;2022-11-18T03:09:28;96755.00;;;7.42;87.38
61039;BME280;46919;45.816;3.104;2022-11-18T03:25:54;96771.91;;;7.19;89.29
61039;BME280;46919;45.816;3.104;2022-11-18T03:28:35;96771.56;;;7.28;88.94
61039;BME280;46919;45.816;3.104;2022-11-18T03:31:11;96780.19;;;7.18;88.93
61039;BME280;46919;45.816;3.104;2022-11-18T03:33:44;96799.69;;;7.13;89.40
61039;BME280;46919;45.816;3.104;2022-11-18T03:36:13;96787.66;;;7.16;89.31
61039;BME280;46919;45.816;3.104;2022-11-18T03:38:44;96793.16;;;7.09;89.61
61039;BME280;46919;45.816;3.104;2022-11-18T03:41:13;96797.84;;;7.14;89.75
61039;BME280;46919;45.816;3.104;2022-11-18T03:43:48;96800.00;;;6.93;90.61
61039;BME280;46919;45.816;3.104;2022-11-18T03:46:22;96791.44;;;6.84;91.49
61039;BME280;46919;45.816;3.104;2022-11-18T03:48:53;96803.88;;;6.79;91.62
61039;BME280;46919;45.816;3.104;2022-11-18T03:51:22;96805.84;;;6.71;91.36
61039;BME280;46919;45.816;3.104;2022-11-18T03:54:17;96812.56;;;6.62;92.19
61039;BME280;46919;45.816;3.104;2022-11-18T03:56:53;96798.50;;;6.79;91.10
61039;BME280;46919;45.816;3.104;2022-11-18T03:59:32;96804.13;;;7.07;88.74
61039;BME280;46919;45.816;3.104;2022-11-18T04:04:34;96810.44;;;6.83;89.30
61039;BME280;46919;45.816;3.104;2022-11-18T04:07:03;96802.25;;;7.08;87.75
61039;BME280;46919;45.816;3.104;2022-11-18T04:09:42;96797.13;;;7.18;86.27
61039;BME280;46919;45.816;3.104;2022-11-18T04:12:13;96801.50;;;7.31;85.21
61039;BME280;46919;45.816;3.104;2022-11-18T04:14:42;96799.75;;;7.37;84.33
61039;BME280;46919;45.816;3.104;2022-11-18T04:17:10;96800.34;;;7.51;83.30
61039;BME280;46919;45.816;3.104;2022-11-18T04:19:36;96806.44;;;7.58;82.78
61039;BME280;46919;45.816;3.104;2022-11-18T04:22:02;96798.81;;;7.55;82.76
61039;BME280;46919;45.816;3.104;2022-11-18T04:24:27;96796.25;;;7.48;82.78
61039;BME280;46919;45.816;3.104;2022-11-18T04:26:53;96797.56;;;7.46;83.07
61039;BME280;46919;45.816;3.104;2022-11-18T04:29:18;96799.06;;;7.41;83.19
61039;BME280;46919;45.816;3.104;2022-11-18T04:31:43;96810.84;;;7.40;82.90
61039;BME280;46919;45.816;3.104;2022-11-18T04:34:09;96815.19;;;7.41;82.63
61039;BME280;46919;45.816;3.104;2022-11-18T04:36:34;96816.38;;;7.46;82.41
61039;BME280;46919;45.816;3.104;2022-11-18T04:39:00;96822.78;;;7.44;82.52
61039;BME280;46919;45.816;3.104;2022-11-18T04:41:25;96835.38;;;7.32;83.14
61039;BME280;46919;45.816;3.104;2022-11-18T04:44:10;96829.97;;;7.20;84.40
61039;BME280;46919;45.816;3.104;2022-11-18T04:46:40;96832.78;;;7.14;84.43
61039;BME280;46919;45.816;3.104;2022-11-18T04:49:07;96828.91;;;7.21;84.18
61039;BME280;46919;45.816;3.104;2022-11-18T04:51:33;96837.66;;;7.17;84.53
61039;BME280;46919;45.816;3.104;2022-11-18T04:53:58;96837.06;;;7.15;84.67
61039;BME280;46919;45.816;3.104;2022-11-18T04:56:23;96840.66;;;7.08;85.00
61039;BME280;46919;45.816;3.104;2022-11-18T04:58:49;96847.50;;;6.93;85.49
61039;BME280;46919;45.816;3.104;2022-11-18T05:01:14;96837.22;;;6.89;85.77
61039;BME280;46919;45.816;3.104;2022-11-18T05:03:40;96836.31;;;6.96;85.43
61039;BME280;46919;45.816;3.104;2022-11-18T05:06:05;96832.69;;;6.90;85.86
61039;BME280;46919;45.816;3.104;2022-11-18T05:08:30;96833.16;;;6.68;86.54
61039;BME280;46919;45.816;3.104;2022-11-18T05:10:56;96830.66;;;6.55;87.44
61039;BME280;46919;45.816;3.104;2022-11-18T05:13:41;96839.38;;;6.50;87.86
61039;BME280;46919;45.816;3.104;2022-11-18T05:16:07;96825.78;;;6.45;88.16
61039;BME280;46919;45.816;3.104;2022-11-18T05:18:32;96824.53;;;6.48;87.65
61039;BME280;46919;45.816;3.104;2022-11-18T05:20:58;96828.00;;;6.67;86.32
61039;BME280;46919;45.816;3.104;2022-11-18T05:23:23;96825.91;;;6.69;86.12
61039;BME280;46919;45.816;3.104;2022-11-18T05:25:48;96823.69;;;6.66;86.23
61039;BME280;46919;45.816;3.104;2022-11-18T05:28:14;96819.16;;;6.66;86.13
61039;BME280;46919;45.816;3.104;2022-11-18T05:30:39;96824.47;;;6.85;85.28
61039;BME280;46919;45.816;3.104;2022-11-18T05:33:04;96824.44;;;7.03;83.98
61039;BME280;46919;45.816;3.104;2022-11-18T05:35:30;96825.00;;;7.05;84.15
61039;BME280;46919;45.816;3.104;2022-11-18T05:37:55;96830.56;;;6.92;84.48
61039;BME280;46919;45.816;3.104;2022-11-18T05:40:20;96831.91;;;6.71;85.63
61039;BME280;46919;45.816;3.104;2022-11-18T05:42:46;96855.31;;;6.45;87.31
61039;BME280;46919;45.816;3.104;2022-11-18T05:45:30;96841.38;;;6.37;88.04
61039;BME280;46919;45.816;3.104;2022-11-18T05:47:56;96850.47;;;6.35;88.52
61039;BME280;46919;45.816;3.104;2022-11-18T05:50:24;96843.09;;;6.12;89.07
61039;BME280;46919;45.816;3.104;2022-11-18T05:52:49;96862.19;;;5.97;89.70
61039;BME280;46919;45.816;3.104;2022-11-18T05:55:16;96868.41;;;5.98;89.52
61039;BME280;46919;45.816;3.104;2022-11-18T05:57:43;96862.00;;;5.92;89.67
61039;BME280;46919;45.816;3.104;2022-11-18T06:00:09;96861.72;;;5.82;90.43
61039;BME280;46919;45.816;3.104;2022-11-18T06:02:35;96868.19;;;6.00;89.57
61039;BME280;46919;45.816;3.104;2022-11-18T06:05:02;96872.38;;;6.14;88.97
61039;BME280;46919;45.816;3.104;2022-11-18T06:07:32;96874.50;;;6.05;89.44
61039;BME280;46919;45.816;3.104;2022-11-18T06:09:59;96880.34;;;5.95;90.04
61039;BME280;46919;45.816;3.104;2022-11-18T06:12:29;96876.91;;;6.13;89.45
61039;BME280;46919;45.816;3.104;2022-11-18T06:14:59;96884.63;;;6.28;88.34
61039;BME280;46919;45.816;3.104;2022-11-18T06:17:34;96885.94;;;6.19;88.46
61039;BME280;46919;45.816;3.104;2022-11-18T06:20:02;96891.41;;;6.06;89.34
61039;BME280;46919;45.816;3.104;2022-11-18T06:22:28;96893.59;;;5.90;90.50
61039;BME280;46919;45.816;3.104;2022-11-18T06:24:53;96887.81;;;5.93;90.41
61039;BME280;46919;45.816;3.104;2022-11-18T06:27:19;96896.28;;;5.90;90.07
61039;BME280;46919;45.816;3.104;2022-11-18T06:29:45;96902.09;;;5.87;90.71
61039;BME280;46919;45.816;3.104;2022-11-18T06:32:10;96904.19;;;5.78;90.85
61039;BME280;46919;45.816;3.104;2022-11-18T06:34:35;96901.97;;;5.75;91.50
61039;BME280;46919;45.816;3.104;2022-11-18T06:37:14;96900.13;;;5.76;91.48
61039;BME280;46919;45.816;3.104;2022-11-18T06:39:40;96904.19;;;5.78;91.88
61039;BME280;46919;45.816;3.104;2022-11-18T06:42:05;96904.38;;;6.09;90.27
61039;BME280;46919;45.816;3.104;2022-11-18T06:44:30;96907.25;;;6.32;89.27
61039;BME280;46919;45.816;3.104;2022-11-18T06:46:56;96916.16;;;6.51;88.29
61039;BME280;46919;45.816;3.104;2022-11-18T06:49:25;96922.03;;;6.79;86.76
61039;BME280;46919;45.816;3.104;2022-11-18T06:51:52;96916.47;;;6.62;87.46
61039;BME280;46919;45.816;3.104;2022-11-18T06:54:17;96922.63;;;6.25;88.73
61039;BME280;46919;45.816;3.104;2022-11-18T06:56:43;96923.66;;;5.99;90.29
61039;BME280;46919;45.816;3.104;2022-11-18T06:59:08;96935.84;;;5.95;90.93
61039;BME280;46919;45.816;3.104;2022-11-18T07:01:35;96931.44;;;5.75;91.97
61039;BME280;46919;45.816;3.104;2022-11-18T07:04:01;96934.31;;;5.49;93.36
61039;BME280;46919;45.816;3.104;2022-11-18T07:06:29;96932.25;;;5.51;93.90
61039;BME280;46919;45.816;3.104;2022-11-18T07:08:55;96949.84;;;5.40;93.92
61039;BME280;46919;45.816;3.104;2022-11-18T07:11:22;96949.72;;;5.21;94.68
61039;BME280;46919;45.816;3.104;2022-11-18T07:13:48;96954.91;;;5.16;95.03
61039;BME280;46919;45.816;3.104;2022-11-18T07:16:21;96956.34;;;5.19;95.56
61039;BME280;46919;45.816;3.104;2022-11-18T07:18:48;96952.59;;;5.20;94.84
61039;BME280;46919;45.816;3.104;2022-11-18T07:21:16;96962.09;;;5.22;94.78
61039;BME280;46919;45.816;3.104;2022-11-18T07:23:42;96973.16;;;5.33;94.64
61039;BME280;46919;45.816;3.104;2022-11-18T07:26:09;96969.78;;;5.51;94.01
61039;BME280;46919;45.816;3.104;2022-11-18T07:28:35;96967.22;;;5.62;93.47
61039;BME280;46919;45.816;3.104;2022-11-18T07:31:01;96973.09;;;5.46;94.01
61039;BME280;46919;45.816;3.104;2022-11-18T07:33:28;96982.63;;;5.35;94.85
61039;BME280;46919;45.816;3.104;2022-11-18T07:35:53;96988.78;;;5.36;95.46
61039;BME280;46919;45.816;3.104;2022-11-18T07:38:19;96988.69;;;5.17;96.07
61039;BME280;46919;45.816;3.104;2022-11-18T07:40:44;96995.28;;;5.15;97.07
61039;BME280;46919;45.816;3.104;2022-11-18T07:43:09;97001.31;;;5.03;97.50
61039;BME280;46919;45.816;3.104;2022-11-18T07:45:35;97001.88;;;5.12;97.29
61039;BME280;46919;45.816;3.104;2022-11-18T07:48:00;97004.88;;;5.36;96.99
61039;BME280;46919;45.816;3.104;2022-11-18T07:50:26;97019.72;;;5.38;96.27
61039;BME280;46919;45.816;3.104;2022-11-18T07:52:54;97021.78;;;5.30;96.95
61039;BME280;46919;45.816;3.104;2022-11-18T07:55:19;97022.00;;;5.35;96.82
61039;BME280;46919;45.816;3.104;2022-11-18T07:57:45;97025.88;;;5.39;96.87
61039;BME280;46919;45.816;3.104;2022-11-18T08:00:11;97033.31;;;5.37;97.26
61039;BME280;46919;45.816;3.104;2022-11-18T08:02:37;97038.44;;;5.45;97.37
61039;BME280;46919;45.816;3.104;2022-11-18T08:05:02;97042.28;;;5.62;96.82
61039;BME280;46919;45.816;3.104;2022-11-18T08:07:28;97041.19;;;5.70;96.82
61039;BME280;46919;45.816;3.104;2022-11-18T08:09:53;97039.69;;;5.81;97.07
61039;BME280;46919;45.816;3.104;2022-11-18T08:12:19;97044.75;;;5.96;97.16
61039;BME280;46919;45.816;3.104;2022-11-18T08:14:44;97051.34;;;6.07;96.84
61039;BME280;46919;45.816;3.104;2022-11-18T08:17:09;97049.00;;;6.17;96.94
61039;BME280;46919;45.816;3.104;2022-11-18T08:19:35;97041.13;;;6.22;97.04
61039;BME280;46919;45.816;3.104;2022-11-18T08:22:00;97054.84;;;6.32;97.38
61039;BME280;46919;45.816;3.104;2022-11-18T08:24:25;97060.41;;;6.38;97.41
61039;BME280;46919;45.816;3.104;2022-11-18T08:26:51;97051.03;;;6.47;97.48
61039;BME280;46919;45.816;3.104;2022-11-18T08:29:16;97045.88;;;6.45;97.67
61039;BME280;46919;45.816;3.104;2022-11-18T08:31:42;97050.50;;;6.38;98.35
61039;BME280;46919;45.816;3.104;2022-11-18T08:34:07;97046.38;;;6.35;98.59
61039;BME280;46919;45.816;3.104;2022-11-18T08:36:35;97056.94;;;6.30;99.40
61039;BME280;46919;45.816;3.104;2022-11-18T08:39:03;97051.41;;;6.25;99.75
61039;BME280;46919;45.816;3.104;2022-11-18T08:41:40;97059.03;;;6.28;100.00
61039;BME280;46919;45.816;3.104;2022-11-18T08:44:07;97055.84;;;6.38;100.00
61039;BME280;46919;45.816;3.104;2022-11-18T08:46:34;97057.25;;;6.47;99.71
61039;BME280;46919;45.816;3.104;2022-11-18T08:48:59;97052.75;;;6.66;99.90
61039;BME280;46919;45.816;3.104;2022-11-18T08:51:25;97046.94;;;6.88;98.94
61039;BME280;46919;45.816;3.104;2022-11-18T08:53:50;97056.94;;;6.99;98.20
61039;BME280;46919;45.816;3.104;2022-11-18T08:56:20;97051.53;;;7.06;98.21
61039;BME280;46919;45.816;3.104;2022-11-18T08:58:46;97051.91;;;7.10;98.27
61039;BME280;46919;45.816;3.104;2022-11-18T09:01:12;97046.97;;;7.06;98.41
61039;BME280;46919;45.816;3.104;2022-11-18T09:03:37;97052.78;;;7.03;98.87
61039;BME280;46919;45.816;3.104;2022-11-18T09:08:31;97055.84;;;7.07;98.77
61039;BME280;46919;45.816;3.104;2022-11-18T09:10:56;97057.28;;;7.10;98.38
61039;BME280;46919;45.816;3.104;2022-11-18T09:13:22;97061.31;;;7.19;98.61
61039;BME280;46919;45.816;3.104;2022-11-18T09:15:47;97058.16;;;7.40;98.15
61039;BME280;46919;45.816;3.104;2022-11-18T09:18:13;97054.56;;;7.47;97.62
61039;BME280;46919;45.816;3.104;2022-11-18T09:20:38;97053.66;;;7.53;97.09
61039;BME280;46919;45.816;3.104;2022-11-18T09:23:03;97061.59;;;7.66;96.45
61039;BME280;46919;45.816;3.104;2022-11-18T09:25:29;97061.09;;;7.88;94.56
61039;BME280;46919;45.816;3.104;2022-11-18T09:27:55;97063.28;;;8.09;93.82
61039;BME280;46919;45.816;3.104;2022-11-18T09:30:20;97053.84;;;8.19;93.15
61039;BME280;46919;45.816;3.104;2022-11-18T09:32:46;97057.34;;;8.31;93.01
61039;BME280;46919;45.816;3.104;2022-11-18T09:35:11;97061.53;;;8.45;91.68
61039;BME280;46919;45.816;3.104;2022-11-18T09:37:36;97065.31;;;8.68;88.57
61039;BME280;46919;45.816;3.104;2022-11-18T09:40:02;97044.44;;;8.99;85.63
61039;BME280;46919;45.816;3.104;2022-11-18T09:42:53;97047.69;;;9.24;82.12
61039;BME280;46919;45.816;3.104;2022-11-18T09:45:24;97054.69;;;9.49;82.17
61039;BME280;46919;45.816;3.104;2022-11-18T09:47:56;97054.31;;;9.57;81.38
61039;BME280;46919;45.816;3.104;2022-11-18T09:50:22;97059.13;;;9.55;79.04
61039;BME280;46919;45.816;3.104;2022-11-18T09:55:19;97056.16;;;9.69;79.15
61039;BME280;46919;45.816;3.104;2022-11-18T09:57:53;97056.16;;;9.69;80.57
61039;BME280;46919;45.816;3.104;2022-11-18T10:00:22;97056.84;;;9.76;79.85
61039;BME280;46919;45.816;3.104;2022-11-18T10:08:20;97054.38;;;9.74;80.55
61039;BME280;46919;45.816;3.104;2022-11-18T10:11:02;97063.88;;;9.77;80.56
61039;BME280;46919;45.816;3.104;2022-11-18T10:16:34;97060.22;;;9.83;76.84
61039;BME280;46919;45.816;3.104;2022-11-18T10:24:21;97058.34;;;10.12;75.97
61039;BME280;46919;45.816;3.104;2022-11-18T10:26:53;97058.56;;;10.11;76.14
61039;BME280;46919;45.816;3.104;2022-11-18T10:29:19;97053.66;;;10.08;75.31
61039;BME280;46919;45.816;3.104;2022-11-18T10:32:01;97047.81;;;10.28;73.07
61039;BME280;46919;45.816;3.104;2022-11-18T10:34:27;97041.38;;;10.46;72.43
61039;BME280;46919;45.816;3.104;2022-11-18T10:37:09;97039.34;;;10.53;70.69
61039;BME280;46919;45.816;3.104;2022-11-18T10:39:55;97046.38;;;10.54;71.51
61039;BME280;46919;45.816;3.104;2022-11-18T10:50:31;97038.03;;;11.12;66.15
61039;BME280;46919;45.816;3.104;2022-11-18T10:52:57;97038.94;;;11.17;66.88
61039;BME280;46919;45.816;3.104;2022-11-18T10:55:27;97034.69;;;11.21;66.67
61039;BME280;46919;45.816;3.104;2022-11-18T10:58:21;97032.25;;;11.03;67.46
61039;BME280;46919;45.816;3.104;2022-11-18T11:00:50;97030.22;;;10.93;68.03
61039;BME280;46919;45.816;3.104;2022-11-18T11:06:32;97027.22;;;11.12;65.26
61039;BME280;46919;45.816;3.104;2022-11-18T11:08:58;97033.50;;;11.34;66.80
61039;BME280;46919;45.816;3.104;2022-11-18T11:11:33;97038.91;;;11.34;66.15
61039;BME280;46919;45.816;3.104;2022-11-18T11:22:13;97044.03;;;11.14;67.18
61039;BME280;46919;45.816;3.104;2022-11-18T11:24:39;97041.28;;;11.09;67.37
61039;BME280;46919;45.816;3.104;2022-11-18T11:35:29;97043.13;;;11.08;66.90
61039;BME280;46919;45.816;3.104;2022-11-18T11:40:40;97036.06;;;11.24;64.96
61039;BME280;46919;45.816;3.104;2022-11-18T11:44:16;97033.28;;;11.19;64.07
61039;BME280;46919;45.816;3.104;2022-11-18T11:49:14;97034.34;;;11.18;64.74
61039;BME280;46919;45.816;3.104;2022-11-18T11:54:23;97025.91;;;11.14;65.63
61039;BME280;46919;45.816;3.104;2022-11-18T12:00:08;97023.03;;;11.65;65.45
61039;BME280;46919;45.816;3.104;2022-11-18T12:05:36;97020.69;;;11.47;64.30
61039;BME280;46919;45.816;3.104;2022-11-18T12:26:43;97023.28;;;11.41;62.98
61039;BME280;46919;45.816;3.104;2022-11-18T12:34:42;97022.41;;;12.02;61.78
61039;BME280;46919;45.816;3.104;2022-11-18T12:40:00;97012.53;;;12.50;60.55
61039;BME280;46919;45.816;3.104;2022-11-18T12:42:46;97012.59;;;12.61;59.92
61039;BME280;46919;45.816;3.104;2022-11-18T12:48:27;96998.47;;;12.21;59.01
61039;BME280;46919;45.816;3.104;2022-11-18T12:51:06;97001.22;;;12.26;60.85
61039;BME280;46919;45.816;3.104;2022-11-18T12:53:37;96995.22;;;12.52;60.46
61039;BME280;46919;45.816;3.104;2022-11-18T12:58:44;96990.41;;;12.64;59.86
61039;BME280;46919;45.816;3.104;2022-11-18T13:01:11;96984.16;;;12.63;59.81
61039;BME280;46919;45.816;3.104;2022-11-18T13:03:37;96963.91;;;12.71;59.71
61039;BME280;46919;45.816;3.104;2022-11-18T13:06:27;96976.28;;;12.62;58.91
61039;BME280;46919;45.816;3.104;2022-11-18T13:08:57;96968.38;;;12.50;60.04
61039;BME280;46919;45.816;3.104;2022-11-18T13:11:24;96957.28;;;12.57;60.07
61039;BME280;46919;45.816;3.104;2022-11-18T13:14:35;96960.03;;;12.62;58.92
61039;BME280;46919;45.816;3.104;2022-11-18T13:20:34;96947.22;;;12.95;56.34
61039;BME280;46919;45.816;3.104;2022-11-18T13:23:25;96945.41;;;12.63;55.81
61039;BME280;46919;45.816;3.104;2022-11-18T13:26:31;96952.03;;;12.45;57.40
61039;BME280;46919;45.816;3.104;2022-11-18T13:34:26;96935.19;;;12.75;57.72
61039;BME280;46919;45.816;3.104;2022-11-18T13:36:54;96935.75;;;12.40;58.82
61039;BME280;46919;45.816;3.104;2022-11-18T13:39:26;96942.03;;;12.13;59.10
61039;BME280;46919;45.816;3.104;2022-11-18T13:42:03;96946.47;;;11.92;59.83
61039;BME280;46919;45.816;3.104;2022-11-18T13:44:31;96941.13;;;11.75;60.37
61039;BME280;46919;45.816;3.104;2022-11-18T13:47:44;96944.94;;;11.74;59.74
61039;BME280;46919;45.816;3.104;2022-11-18T13:50:31;96942.50;;;11.77;59.29
61039;BME280;46919;45.816;3.104;2022-11-18T13:55:33;96946.75;;;11.68;60.16
61039;BME280;46919;45.816;3.104;2022-11-18T13:58:04;96935.28;;;11.83;59.85
61039;BME280;46919;45.816;3.104;2022-11-18T14:00:33;96929.19;;;11.98;59.62
61039;BME280;46919;45.816;3.104;2022-11-18T14:03:22;96931.09;;;12.30;58.60
61039;BME280;46919;45.816;3.104;2022-11-18T14:05:55;96922.31;;;12.55;57.47
61039;BME280;46919;45.816;3.104;2022-11-18T14:08:26;96916.94;;;12.65;56.29
61039;BME280;46919;45.816;3.104;2022-11-18T14:10:52;96909.53;;;12.45;56.62
61039;BME280;46919;45.816;3.104;2022-11-18T14:15:58;96916.91;;;12.55;55.97
61039;BME280;46919;45.816;3.104;2022-11-18T14:18:33;96918.88;;;12.70;55.63
61039;BME280;46919;45.816;3.104;2022-11-18T14:21:00;96923.44;;;12.59;55.99
61039;BME280;46919;45.816;3.104;2022-11-18T14:23:27;96931.63;;;12.32;57.25
61039;BME280;46919;45.816;3.104;2022-11-18T14:25:54;96935.28;;;12.10;58.50
61039;BME280;46919;45.816;3.104;2022-11-18T14:28:29;96931.88;;;11.93;58.77
61039;BME280;46919;45.816;3.104;2022-11-18T14:33:41;96934.13;;;11.79;59.30
61039;BME280;46919;45.816;3.104;2022-11-18T14:36:26;96930.50;;;11.68;59.34
61039;BME280;46919;45.816;3.104;2022-11-18T14:38:52;96937.19;;;11.60;59.65
61039;BME280;46919;45.816;3.104;2022-11-18T14:41:19;96934.69;;;11.54;59.16
61039;BME280;46919;45.816;3.104;2022-11-18T14:44:06;96933.50;;;11.45;59.17
61039;BME280;46919;45.816;3.104;2022-11-18T14:46:32;96929.56;;;11.30;59.10
61039;BME280;46919;45.816;3.104;2022-11-18T14:49:01;96934.88;;;11.20;59.01
61039;BME280;46919;45.816;3.104;2022-11-18T14:51:26;96928.38;;;11.21;59.33
61039;BME280;46919;45.816;3.104;2022-11-18T14:53:52;96938.13;;;11.22;59.65
61039;BME280;46919;45.816;3.104;2022-11-18T14:56:26;96931.72;;;11.06;59.46
61039;BME280;46919;45.816;3.104;2022-11-18T14:58:52;96931.25;;;10.92;60.47
61039;BME280;46919;45.816;3.104;2022-11-18T15:01:18;96943.50;;;10.78;61.41
61039;BME280;46919;45.816;3.104;2022-11-18T15:03:43;96945.59;;;10.71;62.07
61039;BME280;46919;45.816;3.104;2022-11-18T15:06:14;96947.56;;;10.58;62.69
61039;BME280;46919;45.816;3.104;2022-11-18T15:08:40;96941.19;;;10.47;63.24
61039;BME280;46919;45.816;3.104;2022-11-18T15:11:07;96944.06;;;10.41;63.46
61039;BME280;46919;45.816;3.104;2022-11-18T15:13:32;96945.50;;;10.31;64.99
61039;BME280;46919;45.816;3.104;2022-11-18T15:15:57;96950.72;;;10.21;66.04
61039;BME280;46919;45.816;3.104;2022-11-18T15:18:23;96950.66;;;10.16;66.84
61039;BME280;46919;45.816;3.104;2022-11-18T15:20:50;96952.78;;;10.14;66.91
61039;BME280;46919;45.816;3.104;2022-11-18T15:23:16;96958.69;;;10.11;67.33
61039;BME280;46919;45.816;3.104;2022-11-18T15:25:41;96961.88;;;10.08;68.06
61039;BME280;46919;45.816;3.104;2022-11-18T15:28:09;96970.94;;;10.02;68.10
61039;BME280;46919;45.816;3.104;2022-11-18T15:30:34;96964.78;;;9.89;68.17
61039;BME280;46919;45.816;3.104;2022-11-18T15:33:00;96972.63;;;9.91;68.45
61039;BME280;46919;45.816;3.104;2022-11-18T15:35:25;96977.94;;;9.86;68.78
61039;BME280;46919;45.816;3.104;2022-11-18T15:37:51;96984.06;;;9.81;69.27
61039;BME280;46919;45.816;3.104;2022-11-18T15:40:16;96993.72;;;9.77;69.52
61039;BME280;46919;45.816;3.104;2022-11-18T15:42:41;96995.25;;;9.73;70.11
61039;BME280;46919;45.816;3.104;2022-11-18T15:45:07;97002.19;;;9.69;69.68